Terminal Aerodrome Forecast
Issued by NWS Binghamton, NY

Home | Current Version | Previous Version | Text Only | Print | Product List | Glossary On
Versions: 1 2 3 4 5 6 7 8 9 10 11 12 13 14 15 16 17 18 19
523
FTUS41 KBGM 271134
TAFAVP
TAF
KAVP 271134Z 2712/2812 25005KT 5SM BR OVC005
      TEMPO 2712/2713 P6SM NSW BKN015
     FM271300 26004KT P6SM SCT050
     FM280000 10003KT P6SM SCT250=

USA.gov is the U.S. government's official web portal to all federal, state and local government web resources and services.